sensor_id;sensor_type;location;lat;lon;timestamp;pressure;altitude;pressure_sealevel;temperature;humidity
38616;BME280;24370;51.986;4.666;2023-03-22T00:01:51;100957.44;;;17.35;51.85
38616;BME280;24370;51.986;4.666;2023-03-22T00:04:18;100958.03;;;16.93;51.59
38616;BME280;24370;51.986;4.666;2023-03-22T00:06:43;100957.78;;;16.45;52.84
38616;BME280;24370;51.986;4.666;2023-03-22T00:09:09;100951.00;;;16.38;52.66
38616;BME280;24370;51.986;4.666;2023-03-22T00:11:35;100944.88;;;16.09;54.52
38616;BME280;24370;51.986;4.666;2023-03-22T00:14:00;100947.66;;;16.05;55.37
38616;BME280;24370;51.986;4.666;2023-03-22T00:16:25;100951.69;;;16.70;53.58
38616;BME280;24370;51.986;4.666;2023-03-22T00:18:51;100955.63;;;16.03;54.88
38616;BME280;24370;51.986;4.666;2023-03-22T00:21:17;100944.66;;;16.17;54.32
38616;BME280;24370;51.986;4.666;2023-03-22T00:23:43;100935.16;;;16.38;53.93
38616;BME280;24370;51.986;4.666;2023-03-22T00:26:09;100937.88;;;15.49;56.01
38616;BME280;24370;51.986;4.666;2023-03-22T00:28:35;100933.25;;;16.43;54.72
38616;BME280;24370;51.986;4.666;2023-03-22T00:31:01;100922.34;;;15.99;55.30
38616;BME280;24370;51.986;4.666;2023-03-22T00:33:29;100920.50;;;15.71;55.50
38616;BME280;24370;51.986;4.666;2023-03-22T00:36:04;100912.84;;;16.22;54.54
38616;BME280;24370;51.986;4.666;2023-03-22T00:38:30;100909.84;;;15.76;55.74
38616;BME280;24370;51.986;4.666;2023-03-22T00:41:09;100913.28;;;15.50;56.46
38616;BME280;24370;51.986;4.666;2023-03-22T00:43:35;100909.25;;;15.36;56.90
38616;BME280;24370;51.986;4.666;2023-03-22T00:46:01;100900.22;;;16.05;55.05
38616;BME280;24370;51.986;4.666;2023-03-22T00:48:26;100893.38;;;16.26;53.94
38616;BME280;24370;51.986;4.666;2023-03-22T00:50:52;100901.31;;;15.68;55.35
38616;BME280;24370;51.986;4.666;2023-03-22T00:53:17;100898.44;;;15.16;57.55
38616;BME280;24370;51.986;4.666;2023-03-22T00:55:42;100883.81;;;15.65;56.99
38616;BME280;24370;51.986;4.666;2023-03-22T00:58:08;100881.91;;;15.70;56.37
38616;BME280;24370;51.986;4.666;2023-03-22T01:00:33;100870.28;;;16.06;55.52
38616;BME280;24370;51.986;4.666;2023-03-22T01:02:59;100874.25;;;16.71;52.88
38616;BME280;24370;51.986;4.666;2023-03-22T01:05:29;100868.22;;;16.42;54.24
38616;BME280;24370;51.986;4.666;2023-03-22T01:07:55;100859.56;;;16.64;52.23
38616;BME280;24370;51.986;4.666;2023-03-22T01:10:21;100853.91;;;17.00;51.63
38616;BME280;24370;51.986;4.666;2023-03-22T01:12:47;100852.69;;;17.09;50.95
38616;BME280;24370;51.986;4.666;2023-03-22T01:15:12;100845.88;;;17.51;50.09
38616;BME280;24370;51.986;4.666;2023-03-22T01:17:38;100835.25;;;16.79;51.86
38616;BME280;24370;51.986;4.666;2023-03-22T01:20:04;100849.13;;;16.34;53.05
38616;BME280;24370;51.986;4.666;2023-03-22T01:22:31;100833.13;;;17.38;50.79
38616;BME280;24370;51.986;4.666;2023-03-22T01:24:56;100832.66;;;17.03;51.00
38616;BME280;24370;51.986;4.666;2023-03-22T01:27:21;100823.91;;;17.49;50.25
38616;BME280;24370;51.986;4.666;2023-03-22T01:29:47;100819.97;;;16.89;51.34
38616;BME280;24370;51.986;4.666;2023-03-22T01:32:12;100813.50;;;16.73;51.65
38616;BME280;24370;51.986;4.666;2023-03-22T01:34:38;100800.53;;;16.92;51.50
38616;BME280;24370;51.986;4.666;2023-03-22T01:37:03;100793.56;;;17.59;49.45
38616;BME280;24370;51.986;4.666;2023-03-22T01:39:28;100797.44;;;17.04;50.65
38616;BME280;24370;51.986;4.666;2023-03-22T01:41:56;100788.59;;;17.51;49.88
38616;BME280;24370;51.986;4.666;2023-03-22T01:44:22;100803.75;;;15.98;53.03
38616;BME280;24370;51.986;4.666;2023-03-22T01:46:49;100798.00;;;16.63;51.71
38616;BME280;24370;51.986;4.666;2023-03-22T01:49:27;100780.78;;;17.26;50.21
38616;BME280;24370;51.986;4.666;2023-03-22T01:51:55;100774.69;;;17.00;50.90
38616;BME280;24370;51.986;4.666;2023-03-22T01:54:33;100782.94;;;16.42;51.48
38616;BME280;24370;51.986;4.666;2023-03-22T01:57:01;100768.16;;;17.10;50.60
38616;BME280;24370;51.986;4.666;2023-03-22T01:59:27;100776.03;;;16.63;52.07
38616;BME280;24370;51.986;4.666;2023-03-22T02:01:53;100774.69;;;16.26;52.52
38616;BME280;24370;51.986;4.666;2023-03-22T02:04:20;100759.63;;;16.78;52.32
38616;BME280;24370;51.986;4.666;2023-03-22T02:06:49;100768.09;;;16.39;52.80
38616;BME280;24370;51.986;4.666;2023-03-22T02:09:18;100765.91;;;16.51;52.96
38616;BME280;24370;51.986;4.666;2023-03-22T02:20:31;100746.22;;;16.61;54.10
38616;BME280;24370;51.986;4.666;2023-03-22T02:23:20;100739.59;;;16.98;53.37
38616;BME280;24370;51.986;4.666;2023-03-22T02:31:23;100740.81;;;16.64;54.14
38616;BME280;24370;51.986;4.666;2023-03-22T02:44:40;100727.50;;;16.67;56.42
38616;BME280;24370;51.986;4.666;2023-03-22T02:55:19;100715.94;;;17.17;55.48
38616;BME280;24370;51.986;4.666;2023-03-22T02:57:58;100716.25;;;17.09;55.86
38616;BME280;24370;51.986;4.666;2023-03-22T03:00:26;100719.09;;;17.27;54.45
38616;BME280;24370;51.986;4.666;2023-03-22T03:02:56;100711.09;;;16.59;55.40
38616;BME280;24370;51.986;4.666;2023-03-22T03:05:25;100705.94;;;16.56;56.08
38616;BME280;24370;51.986;4.666;2023-03-22T03:07:57;100715.78;;;16.51;57.18
38616;BME280;24370;51.986;4.666;2023-03-22T03:10:25;100708.38;;;16.37;57.13
38616;BME280;24370;51.986;4.666;2023-03-22T03:12:51;100700.66;;;17.03;56.93
38616;BME280;24370;51.986;4.666;2023-03-22T03:15:18;100703.69;;;17.81;52.66
38616;BME280;24370;51.986;4.666;2023-03-22T03:20:26;100697.78;;;17.09;54.18
38616;BME280;24370;51.986;4.666;2023-03-22T03:23:15;100695.38;;;17.48;53.28
38616;BME280;24370;51.986;4.666;2023-03-22T03:25:58;100692.25;;;17.80;52.91
38616;BME280;24370;51.986;4.666;2023-03-22T03:28:39;100691.56;;;17.55;53.48
38616;BME280;24370;51.986;4.666;2023-03-22T03:34:01;100683.31;;;16.96;54.89
38616;BME280;24370;51.986;4.666;2023-03-22T03:36:33;100685.91;;;17.20;54.17
38616;BME280;24370;51.986;4.666;2023-03-22T03:39:03;100689.59;;;17.16;54.58
38616;BME280;24370;51.986;4.666;2023-03-22T03:41:32;100687.00;;;16.44;56.26
38616;BME280;24370;51.986;4.666;2023-03-22T03:44:00;100693.84;;;17.20;55.17
38616;BME280;24370;51.986;4.666;2023-03-22T03:46:26;100686.59;;;16.79;54.41
38616;BME280;24370;51.986;4.666;2023-03-22T03:48:54;100691.81;;;16.81;55.82
38616;BME280;24370;51.986;4.666;2023-03-22T03:51:21;100681.09;;;17.31;53.50
38616;BME280;24370;51.986;4.666;2023-03-22T03:53:47;100696.53;;;16.72;56.05
38616;BME280;24370;51.986;4.666;2023-03-22T03:56:12;100694.22;;;16.39;57.77
38616;BME280;24370;51.986;4.666;2023-03-22T03:58:38;100688.38;;;16.55;58.48
38616;BME280;24370;51.986;4.666;2023-03-22T04:01:03;100687.88;;;15.94;59.04
38616;BME280;24370;51.986;4.666;2023-03-22T04:03:29;100692.59;;;16.10;59.52
38616;BME280;24370;51.986;4.666;2023-03-22T04:05:55;100673.47;;;16.77;57.88
38616;BME280;24370;51.986;4.666;2023-03-22T04:08:20;100684.75;;;16.81;56.17
38616;BME280;24370;51.986;4.666;2023-03-22T04:10:49;100683.81;;;17.28;55.40
38616;BME280;24370;51.986;4.666;2023-03-22T04:13:16;100684.97;;;16.51;56.76
38616;BME280;24370;51.986;4.666;2023-03-22T04:15:41;100684.13;;;16.27;58.90
38616;BME280;24370;51.986;4.666;2023-03-22T04:18:08;100683.78;;;16.11;60.27
38616;BME280;24370;51.986;4.666;2023-03-22T04:20:35;100684.75;;;16.08;59.97
38616;BME280;24370;51.986;4.666;2023-03-22T04:23:03;100672.34;;;15.87;60.54
38616;BME280;24370;51.986;4.666;2023-03-22T04:25:28;100673.03;;;15.92;59.98
38616;BME280;24370;51.986;4.666;2023-03-22T04:27:54;100660.84;;;16.62;58.33
38616;BME280;24370;51.986;4.666;2023-03-22T04:30:20;100664.97;;;16.69;57.88
38616;BME280;24370;51.986;4.666;2023-03-22T04:32:47;100657.44;;;16.82;55.62
38616;BME280;24370;51.986;4.666;2023-03-22T04:35:14;100661.09;;;16.32;58.09
38616;BME280;24370;51.986;4.666;2023-03-22T04:37:40;100648.22;;;16.94;54.64
38616;BME280;24370;51.986;4.666;2023-03-22T04:40:07;100649.41;;;16.85;55.73
38616;BME280;24370;51.986;4.666;2023-03-22T04:42:33;100654.19;;;16.28;58.17
38616;BME280;24370;51.986;4.666;2023-03-22T04:44:59;100650.69;;;16.51;58.02
38616;BME280;24370;51.986;4.666;2023-03-22T04:47:25;100658.19;;;15.89;59.10
38616;BME280;24370;51.986;4.666;2023-03-22T04:49:50;100650.53;;;16.56;55.30
38616;BME280;24370;51.986;4.666;2023-03-22T04:52:16;100649.00;;;16.25;58.39
38616;BME280;24370;51.986;4.666;2023-03-22T04:54:41;100651.22;;;15.88;59.54
38616;BME280;24370;51.986;4.666;2023-03-22T04:57:06;100644.53;;;16.03;59.42
38616;BME280;24370;51.986;4.666;2023-03-22T04:59:32;100636.13;;;16.17;58.36
38616;BME280;24370;51.986;4.666;2023-03-22T05:01:58;100652.34;;;16.30;57.16
38616;BME280;24370;51.986;4.666;2023-03-22T05:04:23;100645.88;;;16.39;57.12
38616;BME280;24370;51.986;4.666;2023-03-22T05:06:49;100646.28;;;16.52;56.58
38616;BME280;24370;51.986;4.666;2023-03-22T05:09:14;100648.72;;;15.84;59.30
38616;BME280;24370;51.986;4.666;2023-03-22T05:11:40;100643.53;;;16.31;57.49
38616;BME280;24370;51.986;4.666;2023-03-22T05:14:07;100636.13;;;16.87;55.03
38616;BME280;24370;51.986;4.666;2023-03-22T05:16:33;100632.59;;;15.93;58.28
38616;BME280;24370;51.986;4.666;2023-03-22T05:18:59;100623.09;;;16.60;55.26
38616;BME280;24370;51.986;4.666;2023-03-22T05:21:27;100639.13;;;15.83;58.91
38616;BME280;24370;51.986;4.666;2023-03-22T05:23:54;100645.06;;;15.88;57.81
38616;BME280;24370;51.986;4.666;2023-03-22T05:26:21;100629.22;;;16.60;55.31
38616;BME280;24370;51.986;4.666;2023-03-22T05:28:54;100628.03;;;16.69;55.76
38616;BME280;24370;51.986;4.666;2023-03-22T05:31:20;100624.63;;;16.20;57.05
38616;BME280;24370;51.986;4.666;2023-03-22T05:33:50;100622.88;;;16.19;56.57
38616;BME280;24370;51.986;4.666;2023-03-22T05:36:17;100628.16;;;15.68;58.43
38616;BME280;24370;51.986;4.666;2023-03-22T05:38:43;100621.06;;;15.96;57.13
38616;BME280;24370;51.986;4.666;2023-03-22T05:41:10;100620.59;;;15.84;57.04
38616;BME280;24370;51.986;4.666;2023-03-22T05:43:35;100622.69;;;15.74;58.02
38616;BME280;24370;51.986;4.666;2023-03-22T05:46:05;100614.53;;;16.07;56.38
38616;BME280;24370;51.986;4.666;2023-03-22T05:48:30;100612.53;;;16.13;55.82
38616;BME280;24370;51.986;4.666;2023-03-22T05:50:56;100609.28;;;16.06;54.71
38616;BME280;24370;51.986;4.666;2023-03-22T05:53:21;100610.31;;;16.95;53.00
38616;BME280;24370;51.986;4.666;2023-03-22T05:55:46;100606.31;;;16.62;53.00
38616;BME280;24370;51.986;4.666;2023-03-22T05:58:12;100599.16;;;16.42;55.05
38616;BME280;24370;51.986;4.666;2023-03-22T06:00:43;100601.47;;;15.77;55.90
38616;BME280;24370;51.986;4.666;2023-03-22T06:03:08;100601.19;;;15.87;57.97
38616;BME280;24370;51.986;4.666;2023-03-22T06:05:34;100597.47;;;16.86;54.03
38616;BME280;24370;51.986;4.666;2023-03-22T06:08:00;100613.06;;;15.47;56.85
38616;BME280;24370;51.986;4.666;2023-03-22T06:10:26;100615.75;;;16.68;54.47
38616;BME280;24370;51.986;4.666;2023-03-22T06:12:52;100617.53;;;15.70;55.80
38616;BME280;24370;51.986;4.666;2023-03-22T06:15:18;100617.41;;;16.00;56.21
38616;BME280;24370;51.986;4.666;2023-03-22T06:17:44;100615.25;;;16.58;55.25
38616;BME280;24370;51.986;4.666;2023-03-22T06:20:12;100621.91;;;16.21;53.71
38616;BME280;24370;51.986;4.666;2023-03-22T06:22:38;100610.84;;;16.11;55.59
38616;BME280;24370;51.986;4.666;2023-03-22T06:25:06;100617.03;;;16.10;55.42
38616;BME280;24370;51.986;4.666;2023-03-22T06:27:32;100611.53;;;16.40;54.49
38616;BME280;24370;51.986;4.666;2023-03-22T06:29:57;100610.59;;;15.94;55.75
38616;BME280;24370;51.986;4.666;2023-03-22T06:32:23;100604.72;;;16.81;53.42
38616;BME280;24370;51.986;4.666;2023-03-22T06:34:58;100610.53;;;16.67;54.37
38616;BME280;24370;51.986;4.666;2023-03-22T06:37:23;100615.28;;;16.81;53.39
38616;BME280;24370;51.986;4.666;2023-03-22T06:39:49;100592.88;;;15.72;55.44
38616;BME280;24370;51.986;4.666;2023-03-22T06:42:16;100607.88;;;16.44;54.57
38616;BME280;24370;51.986;4.666;2023-03-22T06:44:41;100599.47;;;16.33;55.11
38616;BME280;24370;51.986;4.666;2023-03-22T06:47:09;100610.53;;;16.43;54.85
38616;BME280;24370;51.986;4.666;2023-03-22T06:49:35;100603.09;;;16.54;54.35
38616;BME280;24370;51.986;4.666;2023-03-22T06:52:00;100600.38;;;15.85;56.40
38616;BME280;24370;51.986;4.666;2023-03-22T06:54:25;100609.34;;;16.52;55.37
38616;BME280;24370;51.986;4.666;2023-03-22T06:56:51;100613.97;;;16.69;53.88
38616;BME280;24370;51.986;4.666;2023-03-22T06:59:16;100606.59;;;16.31;54.38
38616;BME280;24370;51.986;4.666;2023-03-22T07:01:42;100607.28;;;16.82;53.02
38616;BME280;24370;51.986;4.666;2023-03-22T07:04:07;100616.47;;;16.72;54.50
38616;BME280;24370;51.986;4.666;2023-03-22T07:06:32;100609.00;;;16.61;53.85
38616;BME280;24370;51.986;4.666;2023-03-22T07:08:58;100602.34;;;16.51;54.07
38616;BME280;24370;51.986;4.666;2023-03-22T07:11:24;100607.41;;;16.79;53.78
38616;BME280;24370;51.986;4.666;2023-03-22T07:13:52;100597.97;;;17.18;52.67
38616;BME280;24370;51.986;4.666;2023-03-22T07:16:17;100599.78;;;16.71;53.73
38616;BME280;24370;51.986;4.666;2023-03-22T07:18:43;100602.69;;;15.94;56.06
38616;BME280;24370;51.986;4.666;2023-03-22T07:21:08;100603.66;;;16.62;53.71
38616;BME280;24370;51.986;4.666;2023-03-22T07:23:33;100605.56;;;16.59;54.43
38616;BME280;24370;51.986;4.666;2023-03-22T07:25:59;100600.63;;;16.50;54.58
38616;BME280;24370;51.986;4.666;2023-03-22T07:28:25;100609.03;;;17.48;52.34
38616;BME280;24370;51.986;4.666;2023-03-22T07:31:01;100606.28;;;17.08;53.51
38616;BME280;24370;51.986;4.666;2023-03-22T07:33:28;100595.81;;;16.61;52.79
38616;BME280;24370;51.986;4.666;2023-03-22T07:35:54;100605.13;;;17.57;51.73
38616;BME280;24370;51.986;4.666;2023-03-22T07:38:19;100597.19;;;17.36;52.42
38616;BME280;24370;51.986;4.666;2023-03-22T07:40:45;100596.03;;;18.43;49.74
38616;BME280;24370;51.986;4.666;2023-03-22T07:43:11;100609.56;;;17.56;51.42
38616;BME280;24370;51.986;4.666;2023-03-22T07:45:38;100611.47;;;17.53;52.02
38616;BME280;24370;51.986;4.666;2023-03-22T07:48:05;100610.88;;;17.03;53.46
38616;BME280;24370;51.986;4.666;2023-03-22T07:50:30;100612.78;;;16.54;54.30
38616;BME280;24370;51.986;4.666;2023-03-22T07:52:56;100624.03;;;16.35;55.50
38616;BME280;24370;51.986;4.666;2023-03-22T07:55:21;100615.41;;;16.77;55.82
38616;BME280;24370;51.986;4.666;2023-03-22T07:57:47;100620.00;;;16.72;55.75
38616;BME280;24370;51.986;4.666;2023-03-22T08:00:13;100621.78;;;15.74;59.82
38616;BME280;24370;51.986;4.666;2023-03-22T08:02:39;100607.72;;;16.71;56.38
38616;BME280;24370;51.986;4.666;2023-03-22T08:05:05;100606.81;;;16.72;57.36
38616;BME280;24370;51.986;4.666;2023-03-22T08:07:31;100622.63;;;16.72;56.13
38616;BME280;24370;51.986;4.666;2023-03-22T08:09:56;100616.19;;;17.24;54.72
38616;BME280;24370;51.986;4.666;2023-03-22T08:12:22;100612.34;;;17.33;54.00
38616;BME280;24370;51.986;4.666;2023-03-22T08:14:47;100613.22;;;16.89;55.63
38616;BME280;24370;51.986;4.666;2023-03-22T08:17:16;100632.16;;;16.29;56.85
38616;BME280;24370;51.986;4.666;2023-03-22T08:19:42;100617.56;;;16.66;56.23
38616;BME280;24370;51.986;4.666;2023-03-22T08:22:08;100623.00;;;16.16;58.13
38616;BME280;24370;51.986;4.666;2023-03-22T08:24:33;100630.22;;;16.10;58.50
38616;BME280;24370;51.986;4.666;2023-03-22T08:26:59;100614.63;;;16.52;57.05
38616;BME280;24370;51.986;4.666;2023-03-22T08:29:25;100632.22;;;15.52;61.52
38616;BME280;24370;51.986;4.666;2023-03-22T08:31:51;100625.69;;;15.64;61.39
38616;BME280;24370;51.986;4.666;2023-03-22T08:34:17;100613.69;;;16.29;60.18
38616;BME280;24370;51.986;4.666;2023-03-22T08:36:43;100622.03;;;15.68;62.91
38616;BME280;24370;51.986;4.666;2023-03-22T08:39:08;100611.06;;;16.05;63.27
38616;BME280;24370;51.986;4.666;2023-03-22T08:41:34;100607.38;;;15.86;65.36
38616;BME280;24370;51.986;4.666;2023-03-22T08:43:59;100622.94;;;15.40;67.71
38616;BME280;24370;51.986;4.666;2023-03-22T08:46:25;100619.75;;;15.30;68.83
38616;BME280;24370;51.986;4.666;2023-03-22T08:48:51;100612.78;;;15.29;68.80
38616;BME280;24370;51.986;4.666;2023-03-22T08:51:18;100613.56;;;15.85;66.53
38616;BME280;24370;51.986;4.666;2023-03-22T08:53:45;100616.72;;;15.42;67.73
38616;BME280;24370;51.986;4.666;2023-03-22T08:56:11;100613.13;;;15.97;67.39
38616;BME280;24370;51.986;4.666;2023-03-22T08:58:39;100606.38;;;16.14;66.65
38616;BME280;24370;51.986;4.666;2023-03-22T09:01:09;100612.34;;;15.68;66.93
38616;BME280;24370;51.986;4.666;2023-03-22T09:03:34;100611.97;;;15.27;72.04
38616;BME280;24370;51.986;4.666;2023-03-22T09:06:00;100613.53;;;15.59;71.05
38616;BME280;24370;51.986;4.666;2023-03-22T09:08:25;100605.03;;;14.98;73.33
38616;BME280;24370;51.986;4.666;2023-03-22T09:10:53;100609.78;;;15.92;70.64
38616;BME280;24370;51.986;4.666;2023-03-22T09:13:19;100606.56;;;15.84;70.69
38616;BME280;24370;51.986;4.666;2023-03-22T09:15:45;100611.56;;;15.39;71.00
38616;BME280;24370;51.986;4.666;2023-03-22T09:18:11;100622.91;;;15.15;73.40
38616;BME280;24370;51.986;4.666;2023-03-22T09:20:37;100620.03;;;14.94;73.95
38616;BME280;24370;51.986;4.666;2023-03-22T09:23:03;100602.34;;;16.51;67.05
38616;BME280;24370;51.986;4.666;2023-03-22T09:25:28;100612.75;;;15.02;74.61
38616;BME280;24370;51.986;4.666;2023-03-22T09:27:54;100614.06;;;16.20;70.61
38616;BME280;24370;51.986;4.666;2023-03-22T09:30:20;100614.72;;;16.01;67.96
38616;BME280;24370;51.986;4.666;2023-03-22T09:32:45;100604.41;;;15.95;70.82
38616;BME280;24370;51.986;4.666;2023-03-22T09:35:11;100592.84;;;17.15;64.07
38616;BME280;24370;51.986;4.666;2023-03-22T09:37:36;100602.84;;;16.60;67.30
38616;BME280;24370;51.986;4.666;2023-03-22T09:40:02;100598.78;;;16.04;68.78
38616;BME280;24370;51.986;4.666;2023-03-22T09:42:39;100601.09;;;16.61;68.68
38616;BME280;24370;51.986;4.666;2023-03-22T09:45:12;100596.06;;;16.31;69.31
38616;BME280;24370;51.986;4.666;2023-03-22T09:47:43;100609.28;;;15.55;71.50
38616;BME280;24370;51.986;4.666;2023-03-22T09:52:45;100605.13;;;15.21;75.07
38616;BME280;24370;51.986;4.666;2023-03-22T09:58:09;100606.19;;;16.18;70.59
38616;BME280;24370;51.986;4.666;2023-03-22T10:00:47;100608.53;;;15.25;72.38
38616;BME280;24370;51.986;4.666;2023-03-22T10:08:43;100606.75;;;15.77;72.68
38616;BME280;24370;51.986;4.666;2023-03-22T10:11:30;100626.47;;;15.92;71.79
38616;BME280;24370;51.986;4.666;2023-03-22T10:17:02;100592.25;;;15.91;70.60
38616;BME280;24370;51.986;4.666;2023-03-22T10:19:49;100609.25;;;16.31;70.90
38616;BME280;24370;51.986;4.666;2023-03-22T10:22:17;100603.84;;;15.85;69.57
38616;BME280;24370;51.986;4.666;2023-03-22T10:24:47;100609.06;;;16.36;70.12
38616;BME280;24370;51.986;4.666;2023-03-22T10:27:17;100613.94;;;15.72;71.78
38616;BME280;24370;51.986;4.666;2023-03-22T10:29:50;100592.03;;;15.97;71.08
38616;BME280;24370;51.986;4.666;2023-03-22T10:32:18;100584.91;;;16.47;70.71
38616;BME280;24370;51.986;4.666;2023-03-22T10:34:44;100590.97;;;17.17;66.71
38616;BME280;24370;51.986;4.666;2023-03-22T10:37:16;100579.56;;;15.75;73.62
38616;BME280;24370;51.986;4.666;2023-03-22T10:39:48;100583.03;;;16.03;72.21
38616;BME280;24370;51.986;4.666;2023-03-22T10:42:26;100574.09;;;16.31;72.27
38616;BME280;24370;51.986;4.666;2023-03-22T10:45:04;100566.00;;;16.35;72.14
38616;BME280;24370;51.986;4.666;2023-03-22T10:50:20;100564.41;;;16.31;70.84
38616;BME280;24370;51.986;4.666;2023-03-22T10:55:23;100578.56;;;16.74;65.43
38616;BME280;24370;51.986;4.666;2023-03-22T10:58:17;100568.00;;;17.19;66.03
38616;BME280;24370;51.986;4.666;2023-03-22T11:00:49;100564.78;;;17.33;65.29
38616;BME280;24370;51.986;4.666;2023-03-22T11:08:49;100561.78;;;17.20;65.84
38616;BME280;24370;51.986;4.666;2023-03-22T11:11:20;100565.38;;;16.96;64.56
38616;BME280;24370;51.986;4.666;2023-03-22T11:13:50;100569.84;;;17.99;61.95
38616;BME280;24370;51.986;4.666;2023-03-22T11:16:17;100586.28;;;16.57;66.40
38616;BME280;24370;51.986;4.666;2023-03-22T11:18:44;100580.97;;;16.81;64.49
38616;BME280;24370;51.986;4.666;2023-03-22T11:21:11;100580.28;;;16.75;64.42
38616;BME280;24370;51.986;4.666;2023-03-22T11:23:41;100589.25;;;16.71;66.50
38616;BME280;24370;51.986;4.666;2023-03-22T11:26:12;100599.25;;;17.07;65.16
38616;BME280;24370;51.986;4.666;2023-03-22T11:28:46;100599.91;;;17.76;60.83
38616;BME280;24370;51.986;4.666;2023-03-22T11:31:16;100612.97;;;17.80;60.47
38616;BME280;24370;51.986;4.666;2023-03-22T11:33:58;100619.56;;;16.61;64.67
38616;BME280;24370;51.986;4.666;2023-03-22T11:36:24;100613.66;;;17.43;60.92
38616;BME280;24370;51.986;4.666;2023-03-22T11:39:16;100619.25;;;17.15;63.10
38616;BME280;24370;51.986;4.666;2023-03-22T11:41:43;100618.69;;;16.83;62.89
38616;BME280;24370;51.986;4.666;2023-03-22T11:44:12;100616.34;;;17.21;62.89
38616;BME280;24370;51.986;4.666;2023-03-22T11:46:51;100613.66;;;17.63;60.72
38616;BME280;24370;51.986;4.666;2023-03-22T11:49:18;100609.97;;;17.04;62.61
38616;BME280;24370;51.986;4.666;2023-03-22T11:51:44;100602.25;;;17.42;61.16
38616;BME280;24370;51.986;4.666;2023-03-22T11:56:48;100611.19;;;17.18;62.00
38616;BME280;24370;51.986;4.666;2023-03-22T11:59:28;100615.44;;;16.06;65.47
38616;BME280;24370;51.986;4.666;2023-03-22T12:02:16;100608.19;;;17.48;62.83
38616;BME280;24370;51.986;4.666;2023-03-22T12:04:43;100621.03;;;16.68;62.19
38616;BME280;24370;51.986;4.666;2023-03-22T12:07:19;100616.97;;;16.12;66.58
38616;BME280;24370;51.986;4.666;2023-03-22T12:10:27;100603.91;;;16.78;65.03
38616;BME280;24370;51.986;4.666;2023-03-22T12:13:09;100607.38;;;17.25;61.04
38616;BME280;24370;51.986;4.666;2023-03-22T12:15:41;100609.28;;;16.99;62.84
38616;BME280;24370;51.986;4.666;2023-03-22T12:18:15;100607.00;;;17.55;61.17
38616;BME280;24370;51.986;4.666;2023-03-22T12:23:16;100597.38;;;16.89;63.85
38616;BME280;24370;51.986;4.666;2023-03-22T12:25:49;100591.81;;;17.39;61.77
38616;BME280;24370;51.986;4.666;2023-03-22T12:28:23;100588.28;;;16.96;62.65
38616;BME280;24370;51.986;4.666;2023-03-22T12:30:54;100585.47;;;17.64;61.00
38616;BME280;24370;51.986;4.666;2023-03-22T12:33:28;100579.47;;;18.21;59.77
38616;BME280;24370;51.986;4.666;2023-03-22T12:35:57;100573.50;;;17.35;60.52
38616;BME280;24370;51.986;4.666;2023-03-22T12:41:04;100582.00;;;17.21;62.01
38616;BME280;24370;51.986;4.666;2023-03-22T12:44:08;100587.69;;;17.94;58.64
38616;BME280;24370;51.986;4.666;2023-03-22T12:46:56;100575.00;;;17.20;59.38
38616;BME280;24370;51.986;4.666;2023-03-22T12:49:24;100580.19;;;17.64;60.81
38616;BME280;24370;51.986;4.666;2023-03-22T12:51:53;100587.03;;;16.83;62.75
38616;BME280;24370;51.986;4.666;2023-03-22T12:54:23;100581.09;;;17.42;62.18
38616;BME280;24370;51.986;4.666;2023-03-22T12:56:50;100586.59;;;17.16;62.17
38616;BME280;24370;51.986;4.666;2023-03-22T12:59:19;100588.16;;;16.99;62.05
38616;BME280;24370;51.986;4.666;2023-03-22T13:01:51;100589.19;;;17.60;61.67
38616;BME280;24370;51.986;4.666;2023-03-22T13:07:08;100590.47;;;16.85;64.66
38616;BME280;24370;51.986;4.666;2023-03-22T13:09:48;100593.78;;;17.96;58.53
38616;BME280;24370;51.986;4.666;2023-03-22T13:27:53;100586.06;;;17.07;62.20
38616;BME280;24370;51.986;4.666;2023-03-22T13:30:25;100581.88;;;17.65;61.25
38616;BME280;24370;51.986;4.666;2023-03-22T13:32:56;100575.19;;;18.37;58.64
38616;BME280;24370;51.986;4.666;2023-03-22T13:35:54;100570.50;;;17.84;59.06
38616;BME280;24370;51.986;4.666;2023-03-22T13:38:40;100569.50;;;16.82;63.06
38616;BME280;24370;51.986;4.666;2023-03-22T13:51:15;100566.66;;;17.91;58.54
38616;BME280;24370;51.986;4.666;2023-03-22T13:56:30;100565.75;;;18.51;57.93
38616;BME280;24370;51.986;4.666;2023-03-22T13:58:58;100562.59;;;18.42;57.34
38616;BME280;24370;51.986;4.666;2023-03-22T14:01:28;100553.84;;;18.40;58.07
38616;BME280;24370;51.986;4.666;2023-03-22T14:04:00;100551.50;;;18.34;59.32
38616;BME280;24370;51.986;4.666;2023-03-22T14:06:33;100542.13;;;18.08;59.24
38616;BME280;24370;51.986;4.666;2023-03-22T14:09:02;100532.47;;;18.81;57.34
38616;BME280;24370;51.986;4.666;2023-03-22T14:11:44;100535.66;;;19.25;56.28
38616;BME280;24370;51.986;4.666;2023-03-22T14:14:16;100549.06;;;19.22;55.83
38616;BME280;24370;51.986;4.666;2023-03-22T14:16:49;100532.94;;;19.26;54.96
38616;BME280;24370;51.986;4.666;2023-03-22T14:19:22;100529.13;;;18.78;55.49
38616;BME280;24370;51.986;4.666;2023-03-22T14:21:51;100537.63;;;17.70;59.88
38616;BME280;24370;51.986;4.666;2023-03-22T14:24:20;100539.41;;;18.84;56.92
38616;BME280;24370;51.986;4.666;2023-03-22T14:26:51;100527.69;;;17.96;60.83
38616;BME280;24370;51.986;4.666;2023-03-22T14:29:20;100532.06;;;17.76;61.07
38616;BME280;24370;51.986;4.666;2023-03-22T14:31:57;100524.81;;;17.40;62.34
38616;BME280;24370;51.986;4.666;2023-03-22T14:34:26;100518.38;;;18.44;58.83
38616;BME280;24370;51.986;4.666;2023-03-22T14:36:57;100516.97;;;18.37;59.08
38616;BME280;24370;51.986;4.666;2023-03-22T14:39:38;100514.22;;;18.58;57.42
38616;BME280;24370;51.986;4.666;2023-03-22T14:42:07;100516.94;;;18.93;58.14